DAL8079 PANC-PACV
Flight info
| Callsign | DAL8079 |
|---|---|
| Flight time | 0h 39m |
| Altitude | 21000 |
| Route | NOEND4 NOEND JOH |
| Aircraft | A319/M-SDE3FGHIRWY/LB1 |
Departure
| Time | 2026-04-26 14:15 |
|---|---|
| Airport | Ted Stevens Anchorage International Airport (PANC) |
Arrival
| Time | 2026-04-26 14:55 |
|---|---|
| Airport | Merle K (Mudhole) Smith Airport (PACV) |
| Time | Latitude | Longitude | Altitude | Speed | Heading |
|---|---|---|---|---|---|
| 2026-04-26 14:01 | 61.17219 | -149.98398 | 117 ft | 0 kts | 358° |
| 2026-04-26 14:09 | 61.17197 | -149.98397 | 120 ft | 4 kts | 0° |
| 2026-04-26 14:09 | 61.17175 | -149.98396 | 117 ft | 4 kts | 355° |
| 2026-04-26 14:09 | 61.17149 | -149.98386 | 117 ft | 4 kts | 336° |
| 2026-04-26 14:10 | 61.17128 | -149.98356 | 118 ft | 4 kts | 304° |
| 2026-04-26 14:10 | 61.17118 | -149.98308 | 120 ft | 3 kts | 271° |
| 2026-04-26 14:10 | 61.17118 | -149.98301 | 120 ft | 0 kts | 270° |
| 2026-04-26 14:13 | 61.17118 | -149.98442 | 120 ft | 10 kts | 269° |
| 2026-04-26 14:13 | 61.17119 | -149.98627 | 119 ft | 15 kts | 270° |
| 2026-04-26 14:13 | 61.17120 | -149.98885 | 121 ft | 20 kts | 271° |
| 2026-04-26 14:14 | 61.17124 | -149.99179 | 121 ft | 21 kts | 271° |
| 2026-04-26 14:14 | 61.17125 | -149.99484 | 120 ft | 22 kts | 270° |
| 2026-04-26 14:14 | 61.17131 | -149.99803 | 119 ft | 23 kts | 289° |
| 2026-04-26 14:14 | 61.17261 | -149.99941 | 120 ft | 23 kts | 347° |
| 2026-04-26 14:15 | 61.17625 | -150.00145 | 124 ft | 93 kts | 345° |
| 2026-04-26 14:15 | 61.18474 | -150.00631 | 121 ft | 157 kts | 344° |
| 2026-04-26 14:15 | 61.19577 | -150.01247 | 615 ft | 166 kts | 345° |
| 2026-04-26 14:15 | 61.20692 | -150.01971 | 1294 ft | 168 kts | 333° |
| 2026-04-26 14:16 | 61.21681 | -150.03264 | 1994 ft | 171 kts | 324° |
| 2026-04-26 14:16 | 61.22696 | -150.04819 | 2410 ft | 192 kts | 323° |
| 2026-04-26 14:16 | 61.23829 | -150.06554 | 2775 ft | 217 kts | 324° |
| 2026-04-26 14:16 | 61.25112 | -150.08475 | 3416 ft | 234 kts | 325° |
| 2026-04-26 14:17 | 61.26459 | -150.10445 | 4314 ft | 239 kts | 326° |
| 2026-04-26 14:17 | 61.27933 | -150.12077 | 5196 ft | 244 kts | 344° |
| 2026-04-26 14:17 | 61.29629 | -150.12347 | 6075 ft | 248 kts | 10° |
| 2026-04-26 14:17 | 61.31238 | -150.11085 | 6967 ft | 251 kts | 34° |
| 2026-04-26 14:18 | 61.32529 | -150.08625 | 7874 ft | 253 kts | 47° |
| 2026-04-26 14:18 | 61.33754 | -150.05945 | 8768 ft | 257 kts | 47° |
| 2026-04-26 14:18 | 61.34803 | -150.02910 | 9579 ft | 262 kts | 69° |
| 2026-04-26 14:18 | 61.35128 | -149.99186 | 10402 ft | 265 kts | 95° |
| 2026-04-26 14:19 | 61.34627 | -149.95399 | 10852 ft | 284 kts | 122° |
| 2026-04-26 14:19 | 61.33328 | -149.92128 | 11176 ft | 305 kts | 135° |
| 2026-04-26 14:19 | 61.31814 | -149.88812 | 11554 ft | 325 kts | 135° |
| 2026-04-26 14:19 | 61.30258 | -149.85408 | 12259 ft | 332 kts | 135° |
| 2026-04-26 14:20 | 61.28664 | -149.81897 | 13043 ft | 336 kts | 135° |
| 2026-04-26 14:20 | 61.27194 | -149.78070 | 13749 ft | 344 kts | 123° |
| 2026-04-26 14:20 | 61.26175 | -149.73507 | 14439 ft | 352 kts | 109° |
| 2026-04-26 14:20 | 61.25538 | -149.68542 | 15122 ft | 358 kts | 106° |
| 2026-04-26 14:21 | 61.24903 | -149.63485 | 15790 ft | 364 kts | 106° |
| 2026-04-26 14:21 | 61.24279 | -149.58345 | 16438 ft | 370 kts | 104° |
| 2026-04-26 14:21 | 61.23722 | -149.53098 | 17067 ft | 375 kts | 103° |
| 2026-04-26 14:21 | 61.23196 | -149.47745 | 17691 ft | 381 kts | 102° |
| 2026-04-26 14:22 | 61.22680 | -149.42317 | 18273 ft | 386 kts | 102° |
| 2026-04-26 14:22 | 61.22156 | -149.36814 | 18875 ft | 391 kts | 102° |
| 2026-04-26 14:22 | 61.21631 | -149.31229 | 19434 ft | 397 kts | 102° |
| 2026-04-26 14:22 | 61.21102 | -149.25576 | 19999 ft | 402 kts | 102° |
| 2026-04-26 14:23 | 61.20561 | -149.19844 | 20560 ft | 407 kts | 102° |
| 2026-04-26 14:23 | 61.20009 | -149.14041 | 20966 ft | 412 kts | 102° |
| 2026-04-26 14:23 | 61.19456 | -149.08266 | 21064 ft | 416 kts | 102° |
| 2026-04-26 14:23 | 61.18875 | -149.02264 | 21087 ft | 421 kts | 102° |
| 2026-04-26 14:24 | 61.18300 | -148.96394 | 21090 ft | 421 kts | 102° |
| 2026-04-26 14:24 | 61.17714 | -148.90438 | 21080 ft | 422 kts | 102° |
| 2026-04-26 14:24 | 61.17126 | -148.84484 | 21079 ft | 422 kts | 102° |
| 2026-04-26 14:24 | 61.16727 | -148.80470 | 21083 ft | 422 kts | 102° |
| 2026-04-26 14:25 | 61.15942 | -148.72583 | 21083 ft | 422 kts | 103° |
| 2026-04-26 14:25 | 61.15548 | -148.68646 | 21081 ft | 421 kts | 103° |
| 2026-04-26 14:25 | 61.14951 | -148.62717 | 21082 ft | 420 kts | 103° |
| 2026-04-26 14:25 | 61.14350 | -148.56803 | 21081 ft | 420 kts | 103° |
| 2026-04-26 14:26 | 61.13688 | -148.50927 | 21073 ft | 419 kts | 108° |
| 2026-04-26 14:26 | 61.12629 | -148.45332 | 21082 ft | 417 kts | 118° |
| 2026-04-26 14:26 | 61.11148 | -148.40200 | 21083 ft | 414 kts | 128° |
| 2026-04-26 14:26 | 61.09495 | -148.35332 | 21081 ft | 414 kts | 128° |
| 2026-04-26 14:27 | 61.07845 | -148.30455 | 21086 ft | 414 kts | 127° |
| 2026-04-26 14:27 | 61.06197 | -148.25579 | 21085 ft | 414 kts | 127° |
| 2026-04-26 14:27 | 61.04549 | -148.20698 | 21081 ft | 414 kts | 127° |
| 2026-04-26 14:27 | 61.02900 | -148.15821 | 21075 ft | 415 kts | 127° |
| 2026-04-26 14:28 | 61.01247 | -148.10952 | 21073 ft | 415 kts | 128° |
| 2026-04-26 14:28 | 60.99587 | -148.06081 | 21070 ft | 415 kts | 128° |
| 2026-04-26 14:28 | 60.97921 | -148.01209 | 21070 ft | 416 kts | 128° |
| 2026-04-26 14:28 | 60.96255 | -147.96346 | 21071 ft | 416 kts | 128° |
| 2026-04-26 14:29 | 60.94586 | -147.91479 | 21089 ft | 416 kts | 128° |
| 2026-04-26 14:29 | 60.92921 | -147.86627 | 21091 ft | 414 kts | 128° |
| 2026-04-26 14:29 | 60.91257 | -147.81791 | 21092 ft | 415 kts | 128° |
| 2026-04-26 14:29 | 60.89589 | -147.76952 | 21090 ft | 415 kts | 128° |
| 2026-04-26 14:30 | 60.87918 | -147.72123 | 21087 ft | 415 kts | 128° |
| 2026-04-26 14:30 | 60.86238 | -147.67288 | 21089 ft | 416 kts | 128° |
| 2026-04-26 14:30 | 60.84562 | -147.62470 | 21082 ft | 416 kts | 128° |
| 2026-04-26 14:30 | 60.82879 | -147.57636 | 21084 ft | 416 kts | 128° |
| 2026-04-26 14:31 | 60.81193 | -147.52807 | 21086 ft | 416 kts | 129° |
| 2026-04-26 14:31 | 60.79507 | -147.47988 | 21089 ft | 416 kts | 129° |
| 2026-04-26 14:31 | 60.77818 | -147.43169 | 21090 ft | 417 kts | 129° |
| 2026-04-26 14:31 | 60.76127 | -147.38353 | 21095 ft | 417 kts | 129° |
| 2026-04-26 14:32 | 60.74452 | -147.33592 | 21097 ft | 417 kts | 129° |
| 2026-04-26 14:32 | 60.72759 | -147.28787 | 21131 ft | 417 kts | 129° |
| 2026-04-26 14:32 | 60.71062 | -147.23985 | 21145 ft | 417 kts | 129° |
| 2026-04-26 14:32 | 60.69363 | -147.19187 | 21150 ft | 416 kts | 129° |
| 2026-04-26 14:33 | 60.67666 | -147.14406 | 21161 ft | 416 kts | 129° |
| 2026-04-26 14:33 | 60.65966 | -147.09630 | 21169 ft | 416 kts | 129° |
| 2026-04-26 14:33 | 60.64268 | -147.04854 | 21172 ft | 415 kts | 129° |
| 2026-04-26 14:33 | 60.62575 | -147.00101 | 21181 ft | 415 kts | 129° |
| 2026-04-26 14:34 | 60.60876 | -146.95352 | 21184 ft | 415 kts | 129° |
| 2026-04-26 14:34 | 60.59177 | -146.90611 | 21186 ft | 414 kts | 129° |
| 2026-04-26 14:34 | 60.57478 | -146.85880 | 21186 ft | 414 kts | 129° |
| 2026-04-26 14:34 | 60.55778 | -146.81159 | 21185 ft | 413 kts | 129° |
| 2026-04-26 14:35 | 60.54081 | -146.76455 | 21127 ft | 410 kts | 129° |
| 2026-04-26 14:35 | 60.52414 | -146.71844 | 20873 ft | 400 kts | 130° |
| 2026-04-26 14:35 | 60.50781 | -146.67335 | 20623 ft | 393 kts | 130° |
| 2026-04-26 14:35 | 60.49225 | -146.62795 | 20372 ft | 392 kts | 124° |
| 2026-04-26 14:36 | 60.48032 | -146.57817 | 20121 ft | 392 kts | 113° |
| 2026-04-26 14:36 | 60.47276 | -146.52509 | 19880 ft | 392 kts | 105° |
| 2026-04-26 14:36 | 60.46690 | -146.47133 | 19623 ft | 389 kts | 105° |
| 2026-04-26 14:36 | 60.46109 | -146.41871 | 19375 ft | 386 kts | 105° |
| 2026-04-26 14:37 | 60.45511 | -146.36515 | 19121 ft | 383 kts | 105° |
| 2026-04-26 14:37 | 60.44936 | -146.31378 | 18729 ft | 377 kts | 106° |
| 2026-04-26 14:37 | 60.44353 | -146.26213 | 18267 ft | 374 kts | 106° |
| 2026-04-26 14:37 | 60.43775 | -146.21103 | 17803 ft | 371 kts | 106° |
| 2026-04-26 14:38 | 60.43201 | -146.16029 | 17328 ft | 368 kts | 106° |
| 2026-04-26 14:38 | 60.42631 | -146.10998 | 16862 ft | 365 kts | 106° |
| 2026-04-26 14:38 | 60.42061 | -146.06003 | 16400 ft | 363 kts | 106° |
| 2026-04-26 14:38 | 60.41494 | -146.01048 | 15941 ft | 360 kts | 106° |
| 2026-04-26 14:39 | 60.40928 | -145.96134 | 15484 ft | 357 kts | 107° |
| 2026-04-26 14:39 | 60.40360 | -145.91234 | 14872 ft | 359 kts | 106° |
| 2026-04-26 14:39 | 60.39793 | -145.86341 | 14400 ft | 356 kts | 106° |
| 2026-04-26 14:39 | 60.39228 | -145.81472 | 13928 ft | 353 kts | 106° |
| 2026-04-26 14:40 | 60.38670 | -145.76660 | 13451 ft | 350 kts | 106° |
| 2026-04-26 14:40 | 60.38115 | -145.71885 | 12977 ft | 347 kts | 106° |
| 2026-04-26 14:40 | 60.37562 | -145.67146 | 12502 ft | 345 kts | 106° |
| 2026-04-26 14:40 | 60.37012 | -145.62449 | 12021 ft | 342 kts | 106° |
| 2026-04-26 14:41 | 60.36462 | -145.57795 | 11544 ft | 339 kts | 106° |
| 2026-04-26 14:41 | 60.35914 | -145.53188 | 11059 ft | 336 kts | 106° |
| 2026-04-26 14:41 | 60.35369 | -145.48621 | 10569 ft | 333 kts | 106° |
| 2026-04-26 14:41 | 60.34837 | -145.44199 | 10364 ft | 322 kts | 105° |
| 2026-04-26 14:42 | 60.34318 | -145.39893 | 10230 ft | 309 kts | 105° |
| 2026-04-26 14:42 | 60.33822 | -145.35762 | 10102 ft | 297 kts | 105° |
| 2026-04-26 14:42 | 60.33367 | -145.31754 | 9859 ft | 291 kts | 101° |
| 2026-04-26 14:42 | 60.33270 | -145.27694 | 9479 ft | 294 kts | 88° |
| 2026-04-26 14:43 | 60.33547 | -145.23591 | 9102 ft | 293 kts | 83° |
| 2026-04-26 14:43 | 60.33833 | -145.19554 | 8629 ft | 288 kts | 83° |
| 2026-04-26 14:43 | 60.34095 | -145.15562 | 8031 ft | 287 kts | 84° |
| 2026-04-26 14:43 | 60.34287 | -145.11516 | 7260 ft | 291 kts | 85° |
| 2026-04-26 14:44 | 60.34430 | -145.07422 | 6464 ft | 293 kts | 94° |
| 2026-04-26 14:44 | 60.33891 | -145.03514 | 5835 ft | 286 kts | 117° |
| 2026-04-26 14:44 | 60.32954 | -145.00055 | 5337 ft | 276 kts | 120° |
| 2026-04-26 14:44 | 60.32121 | -144.96629 | 4831 ft | 268 kts | 115° |
| 2026-04-26 14:45 | 60.31702 | -144.93063 | 4327 ft | 261 kts | 88° |
| 2026-04-26 14:45 | 60.31917 | -144.90709 | 3988 ft | 256 kts | 69° |
| 2026-04-26 14:45 | 60.33134 | -144.86703 | 3324 ft | 248 kts | 41° |
| 2026-04-26 14:45 | 60.34614 | -144.85149 | 2977 ft | 233 kts | 7° |
| 2026-04-26 14:46 | 60.36092 | -144.85701 | 2854 ft | 210 kts | 323° |
| 2026-04-26 14:46 | 60.36862 | -144.87932 | 2719 ft | 189 kts | 276° |
| 2026-04-26 14:46 | 60.36764 | -144.90503 | 2415 ft | 182 kts | 261° |
| 2026-04-26 14:46 | 60.36908 | -144.93026 | 2083 ft | 180 kts | 287° |
| 2026-04-26 14:47 | 60.37380 | -144.95281 | 1974 ft | 171 kts | 295° |
| 2026-04-26 14:47 | 60.37884 | -144.97354 | 1834 ft | 162 kts | 294° |
| 2026-04-26 14:47 | 60.38352 | -144.99355 | 1702 ft | 149 kts | 293° |
| 2026-04-26 14:47 | 60.38756 | -145.01109 | 1559 ft | 131 kts | 293° |
| 2026-04-26 14:48 | 60.39129 | -145.02743 | 1270 ft | 127 kts | 291° |
| 2026-04-26 14:48 | 60.39495 | -145.04352 | 1026 ft | 124 kts | 292° |
| 2026-04-26 14:48 | 60.39861 | -145.05958 | 1026 ft | 126 kts | 292° |
| 2026-04-26 14:48 | 60.40227 | -145.07577 | 1022 ft | 127 kts | 292° |
| 2026-04-26 14:49 | 60.40596 | -145.09205 | 1020 ft | 126 kts | 292° |
| 2026-04-26 14:49 | 60.40963 | -145.10824 | 1122 ft | 128 kts | 292° |
| 2026-04-26 14:49 | 60.41334 | -145.12467 | 1224 ft | 128 kts | 292° |
| 2026-04-26 14:49 | 60.41705 | -145.14104 | 1326 ft | 128 kts | 292° |
| 2026-04-26 14:50 | 60.42074 | -145.15742 | 1426 ft | 128 kts | 293° |
| 2026-04-26 14:50 | 60.42445 | -145.17384 | 1522 ft | 128 kts | 292° |
| 2026-04-26 14:50 | 60.42815 | -145.19025 | 1625 ft | 128 kts | 292° |
| 2026-04-26 14:50 | 60.43186 | -145.20674 | 1725 ft | 130 kts | 294° |
| 2026-04-26 14:51 | 60.43565 | -145.22364 | 1821 ft | 133 kts | 294° |
| 2026-04-26 14:51 | 60.43951 | -145.24079 | 1974 ft | 135 kts | 293° |
| 2026-04-26 14:51 | 60.44340 | -145.25807 | 2009 ft | 135 kts | 294° |
| 2026-04-26 14:51 | 60.44728 | -145.27533 | 1925 ft | 135 kts | 293° |
| 2026-04-26 14:52 | 60.45116 | -145.29261 | 1793 ft | 135 kts | 294° |
| 2026-04-26 14:52 | 60.45503 | -145.30984 | 1635 ft | 134 kts | 294° |
| 2026-04-26 14:52 | 60.45880 | -145.32670 | 1466 ft | 133 kts | 294° |
| 2026-04-26 14:52 | 60.46259 | -145.34364 | 1297 ft | 132 kts | 294° |
| 2026-04-26 14:53 | 60.46637 | -145.36050 | 1123 ft | 131 kts | 294° |
| 2026-04-26 14:53 | 60.47012 | -145.37730 | 951 ft | 131 kts | 294° |
| 2026-04-26 14:53 | 60.47386 | -145.39403 | 778 ft | 130 kts | 294° |
| 2026-04-26 14:53 | 60.47758 | -145.41073 | 614 ft | 130 kts | 294° |
| 2026-04-26 14:54 | 60.48129 | -145.42738 | 432 ft | 129 kts | 294° |
| 2026-04-26 14:54 | 60.48500 | -145.44404 | 260 ft | 129 kts | 294° |
| 2026-04-26 14:54 | 60.48863 | -145.46063 | 126 ft | 128 kts | 291° |
| 2026-04-26 14:54 | 60.49202 | -145.47602 | 93 ft | 104 kts | 297° |
| 2026-04-26 14:55 | 60.49413 | -145.48512 | 91 ft | 30 kts | 295° |
| 2026-04-26 14:55 | 60.49476 | -145.48604 | 88 ft | 1 kts | 72° |
| 2026-04-26 14:55 | 60.49468 | -145.48565 | 90 ft | 7 kts | 108° |
| 2026-04-26 14:55 | 60.49436 | -145.48419 | 88 ft | 15 kts | 113° |
| 2026-04-26 14:56 | 60.49463 | -145.48245 | 90 ft | 12 kts | 34° |
| 2026-04-26 14:56 | 60.49544 | -145.48176 | 92 ft | 13 kts | 20° |
| 2026-04-26 14:56 | 60.49627 | -145.48094 | 92 ft | 14 kts | 42° |
| 2026-04-26 14:56 | 60.49637 | -145.48068 | 94 ft | 0 kts | 53° |